Time;durP1;ratioP1;P1;durP2;ratioP2;P2;SDS_P1;SDS_P2;PMS_P1;PMS_P2;Temp;Humidity;BMP_temperature;BMP_pressure;BME280_temperature;BME280_humidity;BME280_pressure;Samples;Min_cycle;Max_cycle;Signal;HPM_P1;HPM_P2
2023/04/16 00:01:38;;;;;;;2.80;2.50;;;16.60;61.00;17.40;101130.00;;;;5031433;28;20199;-49
2023/04/16 00:04:04;;;;;;;2.80;2.60;;;16.60;61.00;17.30;101132.00;;;;5031225;28;20184;-49
2023/04/16 00:06:30;;;;;;;2.80;2.60;;;16.60;61.00;17.30;101125.00;;;;5031614;28;20214;-49
2023/04/16 00:08:56;;;;;;;3.97;2.90;;;16.60;61.00;17.30;101128.00;;;;5031746;28;20194;-49
2023/04/16 00:11:22;;;;;;;2.70;2.50;;;16.60;61.10;17.10;101125.00;;;;5022967;28;20183;-49
2023/04/16 00:13:48;;;;;;;2.60;2.40;;;16.60;61.20;17.30;101048.00;;;;5030495;28;20240;-49
2023/04/16 00:16:14;;;;;;;3.00;2.70;;;16.60;61.10;17.30;101051.00;;;;5030762;28;20207;-49
2023/04/16 00:18:40;;;;;;;2.70;2.50;;;16.60;61.40;17.30;101125.00;;;;5030496;28;20206;-49
2023/04/16 00:21:06;;;;;;;2.90;2.60;;;16.50;61.20;17.30;101131.00;;;;5030602;28;20186;-50
2023/04/16 00:23:32;;;;;;;2.70;2.50;;;16.50;61.10;17.30;101129.00;;;;5030423;28;20175;-49
2023/04/16 00:25:58;;;;;;;3.10;2.80;;;16.50;61.10;17.30;101130.00;;;;5030381;28;20213;-49
2023/04/16 00:28:26;;;;;;;2.60;2.40;;;16.50;61.20;17.30;101130.00;;;;5030452;28;20261;-49
2023/04/16 00:30:52;;;;;;;2.87;2.67;;;16.50;61.10;17.30;101135.00;;;;5030638;28;20612;-49
2023/04/16 00:33:18;;;;;;;2.80;2.60;;;16.50;61.30;17.30;101135.00;;;;5030221;28;20247;-50
2023/04/16 00:35:47;;;;;;;3.33;3.00;;;16.40;61.30;17.20;101136.00;;;;5030365;28;20256;-49
2023/04/16 00:38:13;;;;;;;2.83;2.63;;;16.40;61.30;17.20;101144.00;;;;5030400;28;20205;-49
2023/04/16 00:40:38;;;;;;;2.90;2.70;;;16.50;61.30;17.20;101144.00;;;;5030701;28;20630;-50
2023/04/16 00:43:04;;;;;;;3.17;2.87;;;16.40;61.30;17.20;101143.00;;;;5030463;28;20278;-49
2023/04/16 00:45:30;;;;;;;3.20;2.90;;;16.40;61.30;17.20;101143.00;;;;5030409;28;20717;-49
2023/04/16 00:47:56;;;;;;;3.47;2.97;;;16.40;61.40;17.20;101144.00;;;;5029319;28;20187;-49
2023/04/16 00:50:22;;;;;;;3.60;3.30;;;16.40;61.30;17.20;101146.00;;;;5031634;28;20187;-52
2023/04/16 00:52:48;;;;;;;3.20;2.90;;;16.40;61.30;17.20;101146.00;;;;5016507;28;20183;-49
2023/04/16 00:55:17;;;;;;;3.27;3.00;;;16.40;61.30;17.20;101019.00;;;;5031122;28;20179;-50
2023/04/16 00:57:43;;;;;;;3.07;2.87;;;16.40;61.50;17.20;101135.00;;;;5032221;28;20265;-50
2023/04/16 01:00:09;;;;;;;3.50;3.20;;;16.40;61.70;17.20;101135.00;;;;5031366;28;20175;-49
2023/04/16 01:02:35;;;;;;;3.50;3.20;;;16.40;61.70;17.20;101148.00;;;;5032000;28;20183;-50
2023/04/16 01:05:01;;;;;;;3.23;3.00;;;16.30;61.50;17.20;101138.00;;;;5034669;28;20175;-49
2023/04/16 01:07:27;;;;;;;3.50;3.20;;;16.40;61.70;17.10;101142.00;;;;5037969;28;20670;-50
2023/04/16 01:09:53;;;;;;;3.60;3.30;;;16.40;61.80;17.10;101141.00;;;;5029928;28;20179;-50
2023/04/16 01:12:19;;;;;;;3.37;3.07;;;16.40;61.80;17.10;101142.00;;;;5029717;28;20189;-50
2023/04/16 01:14:44;;;;;;;3.77;3.37;;;16.30;61.80;17.10;101138.00;;;;5029579;28;20186;-50
2023/04/16 01:17:11;;;;;;;3.40;3.10;;;16.40;61.90;17.20;101135.00;;;;5029780;28;20199;-50
2023/04/16 01:19:37;;;;;;;3.40;3.10;;;16.30;61.50;17.10;101140.00;;;;5029741;28;20209;-49
2023/04/16 01:22:03;;;;;;;4.20;3.40;;;16.40;61.50;17.10;101147.00;;;;5029530;28;20245;-49
2023/04/16 01:24:29;;;;;;;3.70;3.40;;;16.30;61.70;17.20;101141.00;;;;5029305;28;20734;-49
2023/04/16 01:26:59;;;;;;;5.27;4.13;;;16.30;61.40;17.20;101143.00;;;;5029346;28;20680;-49
2023/04/16 01:29:25;;;;;;;5.93;4.10;;;16.30;61.10;16.90;101150.00;;;;5030133;28;20183;-49
2023/04/16 01:31:51;;;;;;;4.40;4.00;;;16.30;61.10;17.20;101151.00;;;;5029949;28;20175;-50
2023/04/16 01:34:17;;;;;;;4.70;4.30;;;16.40;61.20;17.20;101149.00;;;;5029752;28;20185;-49
2023/04/16 01:36:43;;;;;;;4.80;4.40;;;16.30;61.10;17.20;101152.00;;;;5030040;28;20237;-50
2023/04/16 01:39:14;;;;;;;4.93;4.43;;;16.40;61.20;17.20;101079.00;;;;5029496;28;20253;-49
2023/04/16 01:41:40;;;;;;;5.40;4.90;;;16.30;61.00;17.20;101149.00;;;;5029511;28;20299;-48
2023/04/16 01:44:05;;;;;;;5.50;5.00;;;16.30;61.00;17.10;101157.00;;;;5029156;28;20650;-48
2023/04/16 01:46:32;;;;;;;5.30;4.80;;;16.30;61.00;17.10;101151.00;;;;5029191;28;20209;-48
2023/04/16 01:48:58;;;;;;;5.77;5.27;;;16.30;61.10;17.10;101148.00;;;;5027945;28;20183;-49
2023/04/16 01:51:24;;;;;;;6.17;5.57;;;16.20;60.90;17.10;101151.00;;;;5027652;28;20187;-49
2023/04/16 01:53:49;;;;;;;6.53;5.60;;;16.20;61.00;17.10;101158.00;;;;5028722;28;20190;-50
2023/04/16 01:56:15;;;;;;;6.30;5.70;;;16.20;60.90;17.10;101149.00;;;;5029019;28;20202;-49
2023/04/16 01:58:41;;;;;;;5.80;5.30;;;16.20;60.90;17.10;101160.00;;;;5028876;28;20708;-49
2023/04/16 02:01:08;;;;;;;6.43;5.33;;;16.20;60.80;17.10;101150.00;;;;5030825;28;20244;-49
2023/04/16 02:03:34;;;;;;;6.10;5.50;;;16.20;60.80;17.10;101162.00;;;;5028344;28;20213;-49
2023/04/16 02:06:00;;;;;;;6.30;5.77;;;16.20;60.70;17.10;101152.00;;;;5028333;28;20218;-49
2023/04/16 02:08:26;;;;;;;6.50;5.90;;;16.20;60.80;17.00;101159.00;;;;5028774;28;20206;-49
2023/04/16 02:10:52;;;;;;;7.17;5.87;;;16.20;60.80;17.00;101155.00;;;;5028990;28;20573;-50
2023/04/16 02:13:17;;;;;;;6.40;5.80;;;16.10;60.60;17.00;101148.00;;;;5028624;28;20619;-49
2023/04/16 02:15:47;;;;;;;6.50;5.83;;;16.20;60.70;17.00;101153.00;;;;5029102;28;20743;-49
2023/04/16 02:18:12;;;;;;;5.93;5.43;;;16.20;60.70;17.00;101150.00;;;;5028602;28;20198;-50
2023/04/16 02:20:45;;;;;;;7.03;5.93;;;16.10;60.50;17.00;101149.00;;;;5028642;28;20574;-49
2023/04/16 02:23:10;;;;;;;6.17;5.63;;;16.20;61.10;17.00;101159.00;;;;5028865;28;20178;-50
2023/04/16 02:25:44;;;;;;;6.63;5.83;;;16.10;61.10;17.00;101147.00;;;;5028325;28;20697;-50
2023/04/16 02:28:13;;;;;;;7.40;6.70;;;16.10;61.10;17.00;101146.00;;;;5028615;28;20201;-49
2023/04/16 02:30:39;;;;;;;7.53;6.17;;;16.10;61.30;16.90;101153.00;;;;5028879;28;20211;-48
2023/04/16 02:33:06;;;;;;;6.67;6.17;;;16.10;61.40;16.90;101153.00;;;;5029112;28;20187;-49
2023/04/16 02:35:33;;;;;;;7.83;7.13;;;16.10;61.50;16.90;101158.00;;;;5029498;28;20206;-48
2023/04/16 02:37:58;;;;;;;7.23;6.53;;;16.10;61.50;16.90;101149.00;;;;5028868;28;20250;-50
2023/04/16 02:40:25;;;;;;;8.53;7.73;;;16.10;61.50;16.80;101154.00;;;;5029070;28;20190;-49
2023/04/16 02:42:51;;;;;;;8.37;7.50;;;16.10;61.70;16.80;101155.00;;;;5029079;28;20309;-50
2023/04/16 02:45:16;;;;;;;8.17;7.37;;;16.10;61.80;16.80;101151.00;;;;5028571;28;20193;-51
2023/04/16 02:47:42;;;;;;;8.53;7.70;;;16.10;61.50;16.80;101151.00;;;;5028801;28;20217;-49
2023/04/16 02:50:08;;;;;;;8.90;7.93;;;16.10;61.40;16.80;101144.00;;;;5035468;28;20193;-49
2023/04/16 02:52:34;;;;;;;8.53;7.63;;;16.00;61.30;16.80;101146.00;;;;5032969;28;20183;-50
2023/04/16 02:54:59;;;;;;;8.73;7.73;;;16.00;61.30;16.80;101150.00;;;;5030298;28;20199;-49
2023/04/16 02:57:25;;;;;;;9.23;8.20;;;16.00;61.30;16.80;101155.00;;;;5029390;28;20203;-49
2023/04/16 02:59:51;;;;;;;9.07;8.17;;;16.00;61.40;16.80;101156.00;;;;5029213;28;20577;-49
2023/04/16 03:02:17;;;;;;;9.57;8.67;;;16.00;61.50;16.80;101159.00;;;;5029868;28;20247;-48
2023/04/16 03:04:42;;;;;;;9.07;8.27;;;16.10;61.80;16.80;101152.00;;;;5033574;28;20708;-50
2023/04/16 03:07:08;;;;;;;9.93;9.03;;;16.00;61.80;16.80;101158.00;;;;5029173;28;20244;-50
2023/04/16 03:09:34;;;;;;;9.87;8.87;;;16.00;61.90;16.80;101158.00;;;;5028578;28;20183;-50
2023/04/16 03:12:01;;;;;;;10.50;9.43;;;16.00;61.70;16.80;101153.00;;;;5029791;28;20171;-49
2023/04/16 03:14:27;;;;;;;12.13;9.00;;;16.00;61.70;16.50;101157.00;;;;5032049;28;20179;-50
2023/04/16 03:16:52;;;;;;;10.00;9.07;;;16.00;61.90;16.70;101164.00;;;;5032157;28;20205;-50
2023/04/16 03:19:18;;;;;;;10.63;9.63;;;16.00;61.70;16.70;101168.00;;;;5031891;28;20344;-49
2023/04/16 03:21:44;;;;;;;10.97;9.93;;;16.00;61.80;16.70;101163.00;;;;5031016;28;20258;-49
2023/04/16 03:24:10;;;;;;;10.80;9.70;;;16.00;62.20;16.70;101157.00;;;;5033527;28;20586;-54
2023/04/16 03:26:36;;;;;;;11.90;9.83;;;16.00;61.90;16.70;101161.00;;;;5032649;28;20775;-49
2023/04/16 03:29:01;;;;;;;11.43;10.27;;;16.00;61.90;16.70;101161.00;;;;5040659;28;20175;-49
2023/04/16 03:31:27;;;;;;;11.37;10.23;;;16.00;62.00;16.70;101164.00;;;;5041877;28;20206;-48
2023/04/16 03:33:53;;;;;;;11.33;10.23;;;15.90;62.50;16.70;101168.00;;;;5039511;28;20167;-52
2023/04/16 03:36:19;;;;;;;11.03;9.93;;;16.00;61.70;16.70;101172.00;;;;5031164;28;20653;-49
2023/04/16 03:38:45;;;;;;;10.80;9.70;;;15.90;62.00;16.70;101174.00;;;;5032113;28;20198;-50
2023/04/16 03:41:10;;;;;;;10.80;9.70;;;15.90;61.60;16.80;101176.00;;;;5032242;28;20175;-49
2023/04/16 03:43:36;;;;;;;10.87;9.50;;;16.00;61.30;16.80;101186.00;;;;5032299;28;20765;-49
2023/04/16 03:46:02;;;;;;;12.07;10.23;;;16.00;61.60;16.80;101182.00;;;;5031621;28;20690;-49
2023/04/16 03:48:27;;;;;;;10.40;9.40;;;15.90;61.40;16.80;101176.00;;;;5032769;28;20555;-49
2023/04/16 03:50:53;;;;;;;10.73;9.60;;;15.90;61.30;16.80;101175.00;;;;5032934;28;20179;-49
2023/04/16 03:53:19;;;;;;;10.57;9.40;;;15.90;61.30;16.80;101172.00;;;;5032107;28;20285;-49
2023/04/16 03:55:47;;;;;;;11.57;9.77;;;15.90;61.30;16.80;101162.00;;;;5032380;28;20214;-49
2023/04/16 03:58:13;;;;;;;10.93;9.47;;;15.90;61.20;16.70;101169.00;;;;5022668;28;20203;-48
2023/04/16 04:00:41;;;;;;;10.10;9.00;;;15.90;61.20;16.80;101166.00;;;;5031672;28;20195;-49
2023/04/16 04:03:07;;;;;;;9.90;8.90;;;15.90;61.10;16.70;101171.00;;;;5031510;28;20171;-48
2023/04/16 04:05:42;;;;;;;9.23;8.40;;;15.90;61.10;16.70;101174.00;;;;5031702;28;20195;-49
2023/04/16 04:08:07;;;;;;;10.30;9.30;;;15.90;61.10;16.70;101175.00;;;;5032120;28;20205;-50
2023/04/16 04:10:34;;;;;;;10.57;9.33;;;15.90;60.90;16.70;101180.00;;;;5031721;28;20678;-51
2023/04/16 04:13:04;;;;;;;9.60;8.70;;;15.90;60.90;16.70;101179.00;;;;5031433;28;20342;-50
2023/04/16 04:15:30;;;;;;;9.63;8.73;;;15.90;60.90;16.80;101182.00;;;;5030903;28;20199;-49
2023/04/16 04:17:55;;;;;;;9.83;8.83;;;15.90;60.90;16.70;101184.00;;;;5025795;28;20661;-49
2023/04/16 04:20:21;;;;;;;10.97;8.73;;;15.90;60.80;16.70;101183.00;;;;5021674;28;20180;-49
2023/04/16 04:22:47;;;;;;;9.53;8.67;;;15.80;60.90;16.70;101166.00;;;;5010368;28;20176;-49
2023/04/16 04:25:13;;;;;;;9.30;8.07;;;15.90;61.00;16.70;101179.00;;;;4993832;28;20171;-49
2023/04/16 04:27:39;;;;;;;10.17;8.67;;;15.90;61.10;16.70;101174.00;;;;5029100;28;20171;-51
2023/04/16 04:30:05;;;;;;;12.73;8.80;;;15.90;61.10;16.70;101185.00;;;;5029667;28;20186;-49
2023/04/16 04:32:31;;;;;;;11.10;8.60;;;15.90;61.10;16.70;101191.00;;;;5030758;28;20183;-49
2023/04/16 04:35:00;;;;;;;17.43;9.27;;;15.80;61.10;16.70;101191.00;;;;5030266;28;20225;-49
2023/04/16 04:37:25;;;;;;;14.37;8.33;;;15.90;61.20;16.70;101194.00;;;;5022012;28;20224;-49
2023/04/16 04:39:51;;;;;;;15.40;8.43;;;15.80;61.60;16.70;101204.00;;;;5031270;28;20182;-50
2023/04/16 04:42:17;;;;;;;13.57;8.77;;;15.80;61.70;16.70;101194.00;;;;5030196;28;20637;-48
2023/04/16 04:44:44;;;;;;;10.87;7.77;;;15.80;61.60;16.70;101195.00;;;;5030331;28;20167;-49
2023/04/16 04:47:10;;;;;;;11.67;7.93;;;15.80;61.90;16.60;101200.00;;;;5035860;28;20191;-48
2023/04/16 04:49:35;;;;;;;12.00;7.73;;;15.80;61.70;16.40;101195.00;;;;5039614;28;20179;-48
2023/04/16 04:52:01;;;;;;;9.60;8.33;;;15.80;61.40;16.70;101204.00;;;;5035353;28;20252;-49
2023/04/16 04:54:30;;;;;;;9.03;7.73;;;15.80;61.20;16.70;101203.00;;;;5032802;28;20245;-48
2023/04/16 04:56:56;;;;;;;12.13;8.00;;;15.90;61.20;16.70;101198.00;;;;5034467;28;20587;-48
2023/04/16 04:59:22;;;;;;;11.40;8.17;;;15.80;61.10;16.70;101196.00;;;;5033716;28;20206;-48
2023/04/16 05:01:48;;;;;;;11.07;7.70;;;15.80;61.10;16.70;101208.00;;;;5036619;28;20175;-48
2023/04/16 05:04:14;;;;;;;9.00;7.93;;;15.80;61.10;16.70;101207.00;;;;5035955;28;20179;-49
2023/04/16 05:06:39;;;;;;;13.63;8.00;;;15.80;61.10;16.70;101208.00;;;;5032934;28;20282;-48
2023/04/16 05:09:05;;;;;;;7.70;7.00;;;15.80;61.10;16.70;101204.00;;;;5032053;28;20194;-48
2023/04/16 05:11:32;;;;;;;9.23;7.73;;;15.80;61.10;16.70;101212.00;;;;5030940;28;20178;-49
2023/04/16 05:13:58;;;;;;;8.40;7.53;;;15.80;61.10;16.70;101216.00;;;;5030979;28;20186;-48
2023/04/16 05:16:24;;;;;;;9.27;7.43;;;15.80;61.00;16.70;101217.00;;;;5031813;28;20751;-49
2023/04/16 05:18:50;;;;;;;9.83;8.33;;;15.80;61.00;16.60;101217.00;;;;5031086;28;20199;-49
2023/04/16 05:21:15;;;;;;;9.80;7.70;;;15.80;60.90;16.60;101225.00;;;;5031454;28;20179;-48
2023/04/16 05:23:41;;;;;;;8.70;7.77;;;15.80;60.90;16.60;101219.00;;;;5030787;28;20182;-49
2023/04/16 05:26:07;;;;;;;8.67;7.23;;;15.80;60.90;16.60;101223.00;;;;5030968;28;20206;-49
2023/04/16 05:28:32;;;;;;;7.27;6.53;;;15.80;60.90;16.60;101226.00;;;;5030795;28;20175;-49
2023/04/16 05:30:58;;;;;;;7.60;7.00;;;15.70;60.70;16.60;101223.00;;;;5031228;28;20171;-49
2023/04/16 05:33:24;;;;;;;8.17;7.00;;;15.70;60.80;16.60;101225.00;;;;5030349;28;20171;-48
2023/04/16 05:35:50;;;;;;;8.13;7.33;;;15.70;60.80;16.60;101228.00;;;;5030225;28;20218;-50
2023/04/16 05:38:15;;;;;;;7.60;6.83;;;15.70;60.80;16.60;101232.00;;;;5030779;28;20195;-48
2023/04/16 05:40:41;;;;;;;7.67;6.97;;;15.70;60.90;16.60;101233.00;;;;5031754;28;20224;-49
2023/04/16 05:43:07;;;;;;;8.43;6.63;;;15.70;60.90;16.60;101241.00;;;;5029853;28;20171;-49
2023/04/16 05:45:38;;;;;;;7.60;6.90;;;15.70;60.90;16.60;101245.00;;;;5031112;28;20217;-48
2023/04/16 05:48:05;;;;;;;8.67;7.30;;;15.70;60.80;16.50;101248.00;;;;5030319;28;20661;-49
2023/04/16 05:50:30;;;;;;;7.33;6.70;;;15.70;60.80;16.50;101241.00;;;;5031382;28;20187;-49
2023/04/16 05:52:56;;;;;;;7.50;6.90;;;15.70;60.80;16.50;101252.00;;;;5030806;28;20175;-49
2023/04/16 05:55:22;;;;;;;8.87;6.77;;;15.70;60.70;16.50;101252.00;;;;5022107;28;20180;-49
2023/04/16 05:57:48;;;;;;;7.60;6.90;;;15.60;60.50;16.50;101245.00;;;;5030484;28;20338;-49
2023/04/16 06:00:14;;;;;;;7.80;7.10;;;15.70;60.60;16.50;101245.00;;;;5031254;28;20178;-49
2023/04/16 06:02:39;;;;;;;8.17;6.83;;;15.70;60.60;16.50;101246.00;;;;5030764;28;20177;-48
2023/04/16 06:05:05;;;;;;;7.80;7.10;;;15.70;60.60;16.50;101235.00;;;;5030572;28;20175;-49
2023/04/16 06:07:31;;;;;;;7.93;7.00;;;15.60;60.50;16.50;101256.00;;;;5030096;28;20195;-49
2023/04/16 06:09:57;;;;;;;7.80;6.97;;;15.60;60.60;16.50;101247.00;;;;5030340;28;20172;-49
2023/04/16 06:12:22;;;;;;;7.70;7.00;;;15.60;60.50;16.50;101256.00;;;;5030023;28;20523;-49
2023/04/16 06:14:48;;;;;;;7.57;6.97;;;15.60;60.60;16.50;101251.00;;;;5029905;28;20183;-48
2023/04/16 06:17:14;;;;;;;7.87;7.20;;;15.60;60.50;16.50;101259.00;;;;5029816;28;20199;-49
2023/04/16 06:19:40;;;;;;;7.33;6.70;;;15.60;60.50;16.50;101259.00;;;;5030372;28;20242;-49
2023/04/16 06:22:06;;;;;;;7.00;6.40;;;15.60;60.50;16.50;101263.00;;;;5030397;28;20179;-49
2023/04/16 06:24:31;;;;;;;6.93;6.33;;;15.60;60.50;16.50;101266.00;;;;5028617;28;20181;-48
2023/04/16 06:26:57;;;;;;;7.17;6.47;;;15.60;60.50;16.40;101254.00;;;;5029951;28;20203;-49
2023/04/16 06:29:23;;;;;;;7.20;6.53;;;15.60;60.50;16.50;101263.00;;;;5030606;28;20175;-49
2023/04/16 06:31:49;;;;;;;7.13;6.53;;;15.60;60.50;16.50;101265.00;;;;5027738;28;20179;-49
2023/04/16 06:34:15;;;;;;;7.20;6.50;;;15.60;60.50;16.50;101263.00;;;;5030276;28;20557;-48
2023/04/16 06:36:40;;;;;;;7.20;6.60;;;15.60;60.40;16.50;101275.00;;;;5029958;28;20195;-49
2023/04/16 06:39:06;;;;;;;6.87;6.27;;;15.60;60.50;16.40;101278.00;;;;5029055;28;20201;-48
2023/04/16 06:41:32;;;;;;;7.17;6.53;;;15.50;60.30;16.40;101288.00;;;;5029860;28;20171;-49
2023/04/16 06:43:58;;;;;;;6.93;6.33;;;15.50;60.40;16.40;101288.00;;;;5029837;28;20167;-49
2023/04/16 06:46:23;;;;;;;7.10;6.40;;;15.50;60.40;16.40;101283.00;;;;5041182;28;20578;-48
2023/04/16 06:48:49;;;;;;;6.80;6.20;;;15.50;60.40;16.40;101278.00;;;;5031135;28;20178;-49
2023/04/16 06:51:15;;;;;;;6.93;6.33;;;15.50;60.50;16.40;101278.00;;;;5035219;28;20645;-48
2023/04/16 06:53:41;;;;;;;6.50;5.90;;;15.50;60.50;16.40;101284.00;;;;5015787;28;20179;-48
2023/04/16 06:56:07;;;;;;;6.70;6.13;;;15.50;60.70;16.40;101292.00;;;;5036510;28;20275;-48
2023/04/16 06:58:33;;;;;;;6.50;6.00;;;15.50;60.70;16.40;101292.00;;;;5034738;28;20214;-57
2023/04/16 07:00:58;;;;;;;6.53;5.97;;;15.50;60.90;16.40;101289.00;;;;5041797;28;20183;-49
2023/04/16 07:03:25;;;;;;;6.50;5.90;;;15.50;60.80;16.40;101292.00;;;;5035061;28;20175;-49
2023/04/16 07:05:50;;;;;;;6.23;5.73;;;15.50;60.70;16.40;101277.00;;;;5031967;28;20661;-50
2023/04/16 07:08:16;;;;;;;7.07;6.47;;;15.50;60.60;16.40;101281.00;;;;5032494;28;20266;-50
2023/04/16 07:10:42;;;;;;;6.40;5.87;;;15.50;60.50;16.40;101279.00;;;;5034810;28;20224;-50
2023/04/16 07:13:08;;;;;;;7.07;6.47;;;15.50;60.50;16.30;101288.00;;;;5034101;28;20249;-48
2023/04/16 07:15:33;;;;;;;7.17;6.47;;;15.40;60.50;16.30;101288.00;;;;5033180;28;20887;-50
2023/04/16 07:17:59;;;;;;;6.80;6.20;;;15.50;60.50;16.30;101292.00;;;;5034266;28;20260;-50
2023/04/16 07:20:25;;;;;;;7.43;6.73;;;15.40;60.40;16.30;101294.00;;;;5034217;28;20221;-48
2023/04/16 07:22:51;;;;;;;6.90;6.30;;;15.40;60.40;16.30;101296.00;;;;5033170;28;20305;-50
2023/04/16 07:25:16;;;;;;;6.90;6.23;;;15.40;60.40;16.30;101297.00;;;;5032510;28;20167;-49
2023/04/16 07:27:42;;;;;;;6.80;6.20;;;15.50;60.50;16.30;101297.00;;;;5025557;28;20175;-49
2023/04/16 07:30:08;;;;;;;6.47;5.97;;;15.40;60.40;16.30;101290.00;;;;5034007;28;20178;-48
2023/04/16 07:32:34;;;;;;;6.63;6.03;;;15.40;60.30;16.30;101293.00;;;;5033939;28;20261;-49
2023/04/16 07:35:00;;;;;;;6.37;5.87;;;15.40;60.30;16.30;101296.00;;;;5032570;28;20557;-48
2023/04/16 07:37:26;;;;;;;6.37;5.80;;;15.50;60.40;16.30;101294.00;;;;5039026;28;20194;-48
2023/04/16 07:39:51;;;;;;;6.53;6.03;;;15.50;60.50;16.30;101297.00;;;;5035383;28;20171;-49
2023/04/16 07:42:17;;;;;;;6.73;6.13;;;15.40;60.30;16.30;101296.00;;;;5042639;28;20182;-49
2023/04/16 07:44:43;;;;;;;6.47;5.87;;;15.50;60.50;16.30;101303.00;;;;5035508;28;20178;-49
2023/04/16 07:47:09;;;;;;;6.03;5.53;;;15.40;60.40;16.30;101309.00;;;;5032200;28;20754;-49
2023/04/16 07:49:35;;;;;;;6.50;5.80;;;15.40;60.40;16.30;101306.00;;;;5033829;28;20182;-49
2023/04/16 07:52:00;;;;;;;6.30;5.80;;;15.40;60.40;16.30;101326.00;;;;5032488;28;20179;-49
2023/04/16 07:54:26;;;;;;;6.63;6.03;;;15.40;60.40;16.30;101306.00;;;;5030111;28;20209;-49
2023/04/16 07:56:52;;;;;;;6.07;5.57;;;15.40;60.40;16.30;101310.00;;;;5032380;28;20620;-49
2023/04/16 07:59:18;;;;;;;5.93;5.40;;;15.40;60.50;16.30;101309.00;;;;5027723;28;20225;-49
2023/04/16 08:01:43;;;;;;;7.20;5.90;;;15.40;60.60;16.30;101319.00;;;;5028158;28;20168;-49
2023/04/16 08:04:09;;;;;;;6.27;5.67;;;15.40;60.70;16.30;101313.00;;;;5030982;28;20175;-49
2023/04/16 08:06:35;;;;;;;6.30;5.70;;;15.40;60.70;16.30;101313.00;;;;5030165;28;20195;-49
2023/04/16 08:09:00;;;;;;;6.77;6.07;;;15.40;60.80;16.30;101317.00;;;;5032468;28;20179;-56
2023/04/16 08:11:26;;;;;;;6.37;5.67;;;15.40;61.00;16.30;101320.00;;;;5032782;28;20175;-50
2023/04/16 08:13:52;;;;;;;7.00;6.10;;;15.50;61.10;16.40;101326.00;;;;5029318;28;20195;-49
2023/04/16 08:16:18;;;;;;;5.83;5.20;;;15.50;61.00;16.40;101323.00;;;;5029923;28;20206;-50
2023/04/16 08:18:43;;;;;;;5.87;5.30;;;15.60;60.90;16.50;101341.00;;;;5028082;28;20237;-49
2023/04/16 08:21:09;;;;;;;6.00;5.40;;;15.70;61.00;16.50;101333.00;;;;5026043;28;20168;-54
2023/04/16 08:23:35;;;;;;;5.93;5.43;;;15.80;61.00;16.60;101341.00;;;;5018410;28;20179;-49
2023/04/16 08:26:01;;;;;;;5.70;5.20;;;15.90;60.80;16.70;101325.00;;;;5038531;28;20573;-49
2023/04/16 08:28:26;;;;;;;5.47;4.97;;;16.00;60.90;16.70;101336.00;;;;5029441;28;20669;-49
2023/04/16 08:30:52;;;;;;;5.00;4.60;;;16.20;61.00;16.80;101344.00;;;;5030768;28;20564;-49
2023/04/16 08:33:18;;;;;;;5.83;5.00;;;16.30;60.90;16.90;101337.00;;;;5029339;28;20171;-49
2023/04/16 08:35:43;;;;;;;5.33;4.80;;;16.40;60.90;17.00;101335.00;;;;5030509;28;20195;-49
2023/04/16 08:38:09;;;;;;;5.40;4.87;;;16.40;60.90;17.00;101344.00;;;;5030577;28;20237;-49
2023/04/16 08:40:38;;;;;;;4.80;4.37;;;16.50;61.00;17.10;101351.00;;;;5029398;28;20182;-49
2023/04/16 08:43:09;;;;;;;7.50;4.53;;;16.50;61.00;17.20;101341.00;;;;5026720;28;20270;-49
2023/04/16 08:45:35;;;;;;;5.90;4.80;;;16.60;61.10;17.20;101344.00;;;;5036101;28;20215;-49
2023/04/16 08:48:00;;;;;;;5.03;4.60;;;16.60;61.10;17.30;101350.00;;;;5034033;28;20308;-49
2023/04/16 08:50:27;;;;;;;5.73;4.50;;;16.60;61.30;17.30;101352.00;;;;5031716;28;20587;-50
2023/04/16 08:53:00;;;;;;;5.33;4.83;;;16.70;61.40;17.30;101358.00;;;;5032126;28;20175;-49
2023/04/16 08:55:31;;;;;;;5.03;4.60;;;16.60;61.40;17.30;101364.00;;;;5032418;28;20183;-49
2023/04/16 08:57:57;;;;;;;5.10;4.70;;;16.60;61.50;17.40;101357.00;;;;5036446;28;20736;-49
2023/04/16 09:00:23;;;;;;;5.30;4.80;;;16.60;61.50;17.40;101355.00;;;;5034735;28;20175;-49
2023/04/16 09:02:49;;;;;;;5.10;4.60;;;16.70;61.60;17.40;101357.00;;;;5031000;28;20190;-49
2023/04/16 09:05:20;;;;;;;7.00;4.70;;;16.70;61.70;17.40;101360.00;;;;5029909;28;20261;-49
2023/04/16 09:07:46;;;;;;;4.90;4.50;;;16.70;61.70;17.40;101360.00;;;;5034888;28;20186;-49
2023/04/16 09:10:16;;;;;;;4.80;4.40;;;16.60;61.80;17.50;101364.00;;;;5038355;28;20194;-50
2023/04/16 09:12:41;;;;;;;5.37;4.80;;;16.70;62.00;17.50;101362.00;;;;5032134;28;20172;-49
2023/04/16 09:15:10;;;;;;;6.80;4.83;;;16.70;62.30;17.50;101360.00;;;;5032287;28;20171;-49
2023/04/16 09:17:35;;;;;;;6.03;4.60;;;16.70;62.10;17.50;101366.00;;;;5031157;28;20681;-49
2023/04/16 09:20:04;;;;;;;6.53;4.67;;;16.70;62.00;17.50;101364.00;;;;5029672;28;20178;-48
2023/04/16 09:22:30;;;;;;;4.97;4.43;;;16.70;61.90;17.50;101379.00;;;;5028764;28;20502;-49
2023/04/16 09:24:56;;;;;;;5.00;4.60;;;16.70;62.00;17.50;101360.00;;;;5030475;28;20202;-49
2023/04/16 09:27:22;;;;;;;5.57;4.67;;;16.60;61.80;17.50;101374.00;;;;5029365;28;20686;-49
2023/04/16 09:29:48;;;;;;;5.13;4.63;;;16.70;62.00;17.50;101385.00;;;;5028869;28;20221;-49
2023/04/16 09:32:14;;;;;;;4.80;4.40;;;16.60;61.90;17.50;101390.00;;;;5029854;28;20183;-49
2023/04/16 09:35:09;;;;;;;4.90;4.43;;;16.70;62.00;17.50;101389.00;;;;5028669;28;20179;-49
2023/04/16 09:37:35;;;;;;;5.10;4.60;;;16.60;61.90;17.50;101372.00;;;;5024532;28;20219;-50
2023/04/16 09:40:05;;;;;;;4.60;4.30;;;16.60;61.90;17.50;101388.00;;;;5030817;28;20704;-49
2023/04/16 09:42:32;;;;;;;5.10;4.70;;;16.60;61.90;17.50;101379.00;;;;5030001;28;20175;-50
2023/04/16 09:44:58;;;;;;;4.70;4.30;;;16.60;61.90;17.50;101396.00;;;;5029669;28;20171;-48
2023/04/16 09:47:44;;;;;;;5.00;4.50;;;16.60;61.90;17.50;101400.00;;;;5012918;28;20227;-49
2023/04/16 09:50:15;;;;;;;4.83;4.33;;;16.60;62.00;17.50;101407.00;;;;5029482;28;20178;-49
2023/04/16 09:52:42;;;;;;;5.53;4.90;;;16.60;62.00;17.50;101407.00;;;;5029678;28;20163;-50
2023/04/16 09:55:08;;;;;;;5.00;4.60;;;16.60;62.10;17.50;101404.00;;;;5028666;28;20280;-49
2023/04/16 09:57:36;;;;;;;5.03;4.63;;;16.60;62.10;17.50;101408.00;;;;5029626;28;20600;-49
2023/04/16 10:00:04;;;;;;;5.70;4.33;;;16.60;62.20;17.50;101402.00;;;;5029273;28;20191;-49
2023/04/16 10:02:30;;;;;;;5.90;4.70;;;16.60;62.20;17.50;101398.00;;;;5030381;28;20274;-50
2023/04/16 10:04:56;;;;;;;5.07;4.40;;;16.60;62.20;17.50;101396.00;;;;5029102;28;20298;-50
2023/04/16 10:07:22;;;;;;;4.83;4.43;;;16.60;62.20;17.50;101406.00;;;;5029741;28;20206;-48
2023/04/16 10:09:48;;;;;;;4.87;4.47;;;16.50;62.10;17.50;101416.00;;;;5022652;28;20175;-49
2023/04/16 10:12:14;;;;;;;5.00;4.60;;;16.60;62.80;17.50;101406.00;;;;5030018;28;20183;-49
2023/04/16 10:14:40;;;;;;;4.97;4.47;;;16.60;62.60;17.50;101412.00;;;;5029682;28;20182;-49
2023/04/16 10:17:07;;;;;;;4.53;4.13;;;16.60;62.50;17.50;101423.00;;;;5030205;28;20198;-48
2023/04/16 10:19:34;;;;;;;5.27;4.43;;;16.60;62.60;17.50;101410.00;;;;5027698;28;20246;-49
2023/04/16 10:22:00;;;;;;;4.87;4.30;;;16.60;62.60;17.50;101411.00;;;;5024071;28;20252;-48
2023/04/16 10:24:27;;;;;;;4.70;4.20;;;16.60;62.80;17.40;101411.00;;;;5028789;28;20193;-51
2023/04/16 10:26:53;;;;;;;5.33;4.50;;;16.60;63.00;17.40;101408.00;;;;5029176;28;20234;-49
2023/04/16 10:29:20;;;;;;;5.33;4.37;;;16.60;62.90;17.40;101420.00;;;;5028366;28;20276;-49
2023/04/16 10:31:46;;;;;;;6.00;4.70;;;16.60;63.20;17.40;101406.00;;;;5028716;28;20653;-50
2023/04/16 10:34:11;;;;;;;5.47;4.40;;;16.60;63.20;17.40;101403.00;;;;5011444;28;20214;-49
2023/04/16 10:36:37;;;;;;;4.83;4.40;;;16.60;63.30;17.40;101404.00;;;;5028635;28;20210;-50
2023/04/16 10:39:03;;;;;;;5.13;4.63;;;16.60;63.20;17.40;101406.00;;;;5021256;28;20286;-49
2023/04/16 10:41:31;;;;;;;5.20;4.40;;;16.60;63.10;17.40;101409.00;;;;5028663;28;20195;-49